createdAt,value
2023-05-08T00:00:53.296Z,39.39
2023-05-08T00:01:53.248Z,39.38
2023-05-08T00:02:53.232Z,39.39
2023-05-08T00:03:53.630Z,39.39
2023-05-08T00:04:53.216Z,39.39
2023-05-08T00:05:53.227Z,39.40
2023-05-08T00:06:53.224Z,39.38
2023-05-08T00:07:53.207Z,39.39
2023-05-08T00:08:53.230Z,39.40
2023-05-08T00:09:53.210Z,39.42
2023-05-08T00:10:53.218Z,39.42
2023-05-08T00:11:53.241Z,39.42
2023-05-08T00:12:53.255Z,39.42
2023-05-08T00:13:53.236Z,39.44
2023-05-08T00:14:53.238Z,39.41
2023-05-08T00:15:53.247Z,39.42
2023-05-08T00:16:53.298Z,39.42
2023-05-08T00:17:53.313Z,39.45
2023-05-08T00:18:53.266Z,39.44
2023-05-08T00:19:53.264Z,39.45
2023-05-08T00:20:53.304Z,39.45
2023-05-08T00:21:53.708Z,39.46
2023-05-08T00:22:53.279Z,39.46
2023-05-08T00:23:53.325Z,39.45
2023-05-08T00:24:53.278Z,39.45
2023-05-08T00:25:53.303Z,39.45
2023-05-08T00:26:53.299Z,39.46
2023-05-08T00:27:53.299Z,39.46
2023-05-08T00:28:53.354Z,39.50
2023-05-08T00:29:53.366Z,39.48
2023-05-08T00:30:53.336Z,39.49
2023-05-08T00:31:53.384Z,39.50
2023-05-08T00:32:53.416Z,39.47
2023-05-08T00:33:53.404Z,39.50
2023-05-08T00:34:53.378Z,39.51
2023-05-08T00:35:53.384Z,39.50
2023-05-08T00:36:53.452Z,39.49
2023-05-08T00:37:53.415Z,39.49
2023-05-08T00:38:53.440Z,39.51
2023-05-08T00:39:53.450Z,39.49
2023-05-08T00:40:53.424Z,39.48
2023-05-08T00:41:53.452Z,39.51
2023-05-08T00:42:53.444Z,39.51
2023-05-08T00:43:53.450Z,39.52
2023-05-08T00:44:53.530Z,39.51
2023-05-08T00:45:53.474Z,39.51
2023-05-08T00:46:53.482Z,39.48
2023-05-08T00:47:53.499Z,39.50
2023-05-08T00:48:53.476Z,39.49
2023-05-08T00:49:53.488Z,39.52
2023-05-08T00:50:53.502Z,39.52
2023-05-08T00:51:53.494Z,39.53
2023-05-08T00:52:53.502Z,39.54
2023-05-08T00:53:53.505Z,39.54
2023-05-08T00:54:53.531Z,39.53
2023-05-08T00:55:53.548Z,39.55
2023-05-08T00:56:53.558Z,39.55
2023-05-08T00:57:53.544Z,39.56
2023-05-08T00:58:53.550Z,39.56
2023-05-08T00:59:53.563Z,39.54
2023-05-08T01:00:53.585Z,39.56
2023-05-08T01:01:53.667Z,39.56
2023-05-08T01:02:53.642Z,39.57
2023-05-08T01:03:53.767Z,39.54
2023-05-08T01:04:53.582Z,39.59
2023-05-08T01:05:53.617Z,39.57
2023-05-08T01:06:53.645Z,39.56
2023-05-08T01:07:53.637Z,39.59
2023-05-08T01:08:53.620Z,39.59
2023-05-08T01:09:53.660Z,39.60
2023-05-08T01:10:53.660Z,39.58
2023-05-08T01:11:53.674Z,39.57
2023-05-08T01:12:53.668Z,39.62
2023-05-08T01:13:53.669Z,39.60
2023-05-08T01:14:53.678Z,39.61
2023-05-08T01:15:53.728Z,39.62
2023-05-08T01:16:53.706Z,39.62
2023-05-08T01:17:53.813Z,39.60
2023-05-08T01:18:53.721Z,39.59
2023-05-08T01:19:53.755Z,39.60
2023-05-08T01:20:53.765Z,39.65
2023-05-08T01:21:53.771Z,39.61
2023-05-08T01:22:53.793Z,39.64
2023-05-08T01:23:53.788Z,39.60
2023-05-08T01:24:53.798Z,39.65
2023-05-08T01:25:53.814Z,39.64
2023-05-08T01:26:53.838Z,39.64
2023-05-08T01:27:53.849Z,39.64
2023-05-08T01:28:53.854Z,39.67
2023-05-08T01:29:53.843Z,39.62
2023-05-08T01:30:53.874Z,39.64
2023-05-08T01:31:53.913Z,39.65
2023-05-08T01:32:53.996Z,39.66
2023-05-08T01:33:53.921Z,39.65
2023-05-08T01:34:53.948Z,39.66
2023-05-08T01:35:53.914Z,39.67
2023-05-08T01:36:53.946Z,39.67
2023-05-08T01:37:53.929Z,39.67
2023-05-08T01:38:53.980Z,39.70
2023-05-08T01:39:53.952Z,39.69
2023-05-08T01:40:53.958Z,39.68
2023-05-08T01:41:53.942Z,39.70
2023-05-08T01:42:53.949Z,39.67
2023-05-08T01:43:53.945Z,39.69
2023-05-08T01:44:53.955Z,39.69
2023-05-08T01:45:53.969Z,39.70
2023-05-08T01:46:54.000Z,39.73
2023-05-08T01:47:53.959Z,39.68
2023-05-08T01:48:53.938Z,39.71
2023-05-08T01:49:53.948Z,39.69
2023-05-08T01:50:53.945Z,39.69
2023-05-08T01:51:53.978Z,39.69
2023-05-08T01:52:53.957Z,39.72
2023-05-08T01:53:53.941Z,39.69
2023-05-08T01:54:53.947Z,39.72
2023-05-08T01:55:53.961Z,39.69
2023-05-08T01:56:53.943Z,39.72
2023-05-08T01:57:53.930Z,39.74
2023-05-08T01:58:53.940Z,39.72
2023-05-08T01:59:54.192Z,39.72
2023-05-08T02:00:53.956Z,39.72
2023-05-08T02:01:54.001Z,39.72
2023-05-08T02:02:54.040Z,39.72
2023-05-08T02:03:54.018Z,39.72
2023-05-08T02:04:53.950Z,39.72
2023-05-08T02:05:53.978Z,39.74
2023-05-08T02:06:53.991Z,39.74
2023-05-08T02:07:53.972Z,39.75
2023-05-08T02:08:53.968Z,39.75
2023-05-08T02:09:53.989Z,39.75
2023-05-08T02:10:53.958Z,39.76
2023-05-08T02:11:53.977Z,39.73
2023-05-08T02:12:54.011Z,39.72
2023-05-08T02:13:54.003Z,39.73
2023-05-08T02:14:54.045Z,39.73
2023-05-08T02:15:53.993Z,39.75
2023-05-08T02:16:54.035Z,39.74
2023-05-08T02:17:54.050Z,39.74
2023-05-08T02:18:54.021Z,39.73
2023-05-08T02:19:54.009Z,39.73
2023-05-08T02:20:54.023Z,39.76
2023-05-08T02:21:54.008Z,39.77
2023-05-08T02:22:53.997Z,39.77
2023-05-08T02:23:54.028Z,39.76
2023-05-08T02:24:54.017Z,39.75
2023-05-08T02:25:54.031Z,39.77
2023-05-08T02:26:54.028Z,39.77
2023-05-08T02:27:54.037Z,39.80
2023-05-08T02:28:54.028Z,39.77
2023-05-08T02:29:54.060Z,39.77
2023-05-08T02:30:54.008Z,39.76
2023-05-08T02:31:54.053Z,39.76
2023-05-08T02:32:54.103Z,39.74
2023-05-08T02:33:54.020Z,39.78
2023-05-08T02:35:02.343Z,39.76
2023-05-08T02:35:55.042Z,39.79
2023-05-08T02:36:54.016Z,39.78
2023-05-08T02:37:53.989Z,39.78
2023-05-08T02:38:53.990Z,39.79
2023-05-08T02:39:53.996Z,39.79
2023-05-08T02:40:53.992Z,39.77
2023-05-08T02:41:54.000Z,39.78
2023-05-08T02:42:53.953Z,39.79
2023-05-08T02:43:53.973Z,39.79
2023-05-08T02:44:53.999Z,39.77
2023-05-08T02:45:54.027Z,39.81
2023-05-08T02:46:53.971Z,39.79
2023-05-08T02:47:53.983Z,39.81
2023-05-08T02:48:53.949Z,39.82
2023-05-08T02:49:53.921Z,39.78
2023-05-08T02:50:53.907Z,39.78
2023-05-08T02:51:54.286Z,39.79
2023-05-08T02:52:53.919Z,39.77
2023-05-08T02:53:53.899Z,39.82
2023-05-08T02:54:53.903Z,39.85
2023-05-08T02:55:53.873Z,39.80
2023-05-08T02:56:53.896Z,39.81
2023-05-08T02:57:53.873Z,39.84
2023-05-08T02:58:53.845Z,39.82
2023-05-08T02:59:53.855Z,39.80
2023-05-08T03:00:53.878Z,39.82
2023-05-08T03:01:53.943Z,39.84
2023-05-08T03:02:53.939Z,39.84
2023-05-08T03:03:53.909Z,39.82
2023-05-08T03:04:53.873Z,39.84
2023-05-08T03:05:53.905Z,39.83
2023-05-08T03:06:53.900Z,39.85
2023-05-08T03:07:53.910Z,39.83
2023-05-08T03:08:53.889Z,39.85
2023-05-08T03:09:53.925Z,39.82
2023-05-08T03:10:53.927Z,39.86
2023-05-08T03:11:53.936Z,39.84
2023-05-08T03:12:53.982Z,39.81
2023-05-08T03:13:53.974Z,39.83
2023-05-08T03:14:53.964Z,39.84
2023-05-08T03:15:54.012Z,39.86
2023-05-08T03:16:53.997Z,39.85
2023-05-08T03:17:54.058Z,39.84
2023-05-08T03:18:54.007Z,39.85
2023-05-08T03:19:54.043Z,39.84
2023-05-08T03:20:54.047Z,39.86
2023-05-08T03:21:54.117Z,39.86
2023-05-08T03:22:54.083Z,39.89
2023-05-08T03:23:54.093Z,39.86
2023-05-08T03:24:54.176Z,39.87
2023-05-08T03:25:54.130Z,39.85
2023-05-08T03:26:54.186Z,39.86
2023-05-08T03:27:54.189Z,39.85
2023-05-08T03:28:54.205Z,39.85
2023-05-08T03:29:54.213Z,39.89
2023-05-08T03:30:54.250Z,39.89
2023-05-08T03:31:54.256Z,39.88
2023-05-08T03:32:54.277Z,39.88
2023-05-08T03:33:54.307Z,39.88
2023-05-08T03:34:54.295Z,39.90
2023-05-08T03:35:54.328Z,39.87
2023-05-08T03:36:54.346Z,39.88
2023-05-08T03:37:54.331Z,39.89
2023-05-08T03:38:54.361Z,39.90
2023-05-08T03:39:54.371Z,39.89
2023-05-08T03:40:54.419Z,39.88
2023-05-08T03:41:54.750Z,39.89
2023-05-08T03:42:54.440Z,39.87
2023-05-08T03:43:54.456Z,39.89
2023-05-08T03:44:54.539Z,39.91
2023-05-08T03:45:54.490Z,39.90
2023-05-08T03:46:54.539Z,39.91
2023-05-08T03:47:54.507Z,39.91
2023-05-08T03:48:54.529Z,39.91
2023-05-08T03:49:54.550Z,39.95
2023-05-08T03:50:54.566Z,39.90
2023-05-08T03:51:54.580Z,39.92
2023-05-08T03:52:54.582Z,39.97
2023-05-08T03:53:54.624Z,39.93
2023-05-08T03:54:54.598Z,39.94
2023-05-08T03:55:54.639Z,39.96
2023-05-08T03:56:54.714Z,39.96
2023-05-08T03:57:54.643Z,39.96
2023-05-08T03:58:54.654Z,39.95
2023-05-08T03:59:54.727Z,39.95
2023-05-08T04:00:54.694Z,39.96
2023-05-08T04:01:54.749Z,39.96
2023-05-08T04:02:54.757Z,39.95
2023-05-08T04:03:54.933Z,39.98
2023-05-08T04:04:54.793Z,39.97
2023-05-08T04:05:54.760Z,39.99
2023-05-08T04:06:54.772Z,39.99
2023-05-08T04:07:54.776Z,39.99
2023-05-08T04:08:54.799Z,39.98
2023-05-08T04:09:54.812Z,40.01
2023-05-08T04:11:28.300Z,39.99
2023-05-08T04:12:28.296Z,40.01
2023-05-08T04:13:28.318Z,39.97
2023-05-08T04:14:28.294Z,39.97
2023-05-08T04:15:28.313Z,39.99
2023-05-08T04:16:28.315Z,39.97
2023-05-08T04:17:28.314Z,40.00
2023-05-08T04:18:28.282Z,40.00
2023-05-08T04:19:28.242Z,39.97
2023-05-08T04:20:28.263Z,40.01
2023-05-08T04:21:28.231Z,40.02
2023-05-08T04:22:28.217Z,39.99
2023-05-08T04:23:28.265Z,40.01
2023-05-08T04:24:28.216Z,40.03
2023-05-08T04:25:28.208Z,40.04
2023-05-08T04:26:28.222Z,40.03
2023-05-08T04:27:28.227Z,40.03
2023-05-08T04:28:28.204Z,40.03
2023-05-08T04:29:28.185Z,40.03
2023-05-08T04:30:28.167Z,40.03
2023-05-08T04:31:28.251Z,40.04
2023-05-08T04:32:28.193Z,40.03
2023-05-08T04:33:28.201Z,40.01
2023-05-08T04:34:28.139Z,40.02
2023-05-08T04:35:28.142Z,40.03
2023-05-08T04:36:28.143Z,40.04
2023-05-08T04:37:28.145Z,40.05
2023-05-08T04:38:28.128Z,40.03
2023-05-08T04:39:28.114Z,40.05
2023-05-08T04:40:28.102Z,40.06
2023-05-08T04:41:28.115Z,40.04
2023-05-08T04:42:28.112Z,40.05
2023-05-08T04:43:28.079Z,40.04
2023-05-08T04:44:28.083Z,40.05
2023-05-08T04:45:28.060Z,40.02
2023-05-08T04:46:28.092Z,40.06
2023-05-08T04:47:28.175Z,40.03
2023-05-08T04:48:28.049Z,40.03
2023-05-08T04:49:28.079Z,40.04
2023-05-08T04:50:28.042Z,40.02
2023-05-08T04:51:28.031Z,40.05
2023-05-08T04:52:28.029Z,40.04
2023-05-08T04:53:28.064Z,40.06
2023-05-08T04:54:28.029Z,40.06
2023-05-08T04:55:28.036Z,40.05
2023-05-08T04:56:28.002Z,40.07
2023-05-08T04:57:28.008Z,40.10
2023-05-08T04:58:27.996Z,40.11
2023-05-08T04:59:27.980Z,40.08
2023-05-08T05:00:28.031Z,40.08
2023-05-08T05:01:28.037Z,40.09
2023-05-08T05:02:27.979Z,40.09
2023-05-08T05:03:27.993Z,40.08
2023-05-08T05:04:27.952Z,40.11
2023-05-08T05:05:27.940Z,40.12
2023-05-08T05:06:27.944Z,40.12
2023-05-08T05:07:27.919Z,40.14
2023-05-08T05:08:27.922Z,40.13
2023-05-08T05:09:27.928Z,40.16
2023-05-08T05:10:27.878Z,40.17
2023-05-08T05:11:28.025Z,40.16
2023-05-08T05:12:27.882Z,40.15
2023-05-08T05:13:27.931Z,40.18
2023-05-08T05:14:27.877Z,40.17
2023-05-08T05:15:27.883Z,40.17
2023-05-08T05:16:27.914Z,40.18
2023-05-08T05:17:27.902Z,40.18
2023-05-08T05:18:27.828Z,40.21
2023-05-08T05:19:27.862Z,40.16
2023-05-08T05:20:27.826Z,40.18
2023-05-08T05:21:27.806Z,40.20
2023-05-08T05:22:27.875Z,40.21
2023-05-08T05:23:27.799Z,40.18
2023-05-08T05:24:27.863Z,40.23
2023-05-08T05:25:27.808Z,40.21
2023-05-08T05:26:27.785Z,40.20
2023-05-08T05:27:27.790Z,40.21
2023-05-08T05:28:27.809Z,40.22
2023-05-08T05:29:27.870Z,40.22
2023-05-08T05:30:27.765Z,40.22
2023-05-08T05:31:27.808Z,40.22
2023-05-08T05:32:27.926Z,40.23
2023-05-08T05:33:27.716Z,40.18
2023-05-08T05:34:27.756Z,40.20
2023-05-08T05:35:27.717Z,40.29
2023-05-08T05:36:27.704Z,41.14
2023-05-08T05:37:28.529Z,41.37
2023-05-08T05:38:27.687Z,41.20
2023-05-08T05:39:27.685Z,41.26
2023-05-08T05:40:27.736Z,41.54
2023-05-08T05:41:27.866Z,42.65
2023-05-08T05:42:27.679Z,43.48
2023-05-08T05:43:27.660Z,43.84
2023-05-08T05:44:27.670Z,43.57
2023-05-08T05:45:27.683Z,43.83
2023-05-08T05:46:27.785Z,44.18
2023-05-08T05:47:27.792Z,44.26
2023-05-08T05:48:27.904Z,43.85
2023-05-08T05:49:27.855Z,43.98
2023-05-08T05:50:28.067Z,44.02
2023-05-08T05:51:27.982Z,44.60
2023-05-08T05:52:28.037Z,44.76
2023-05-08T05:53:28.072Z,45.13
2023-05-08T05:54:28.121Z,45.17
2023-05-08T05:55:28.252Z,45.23
2023-05-08T05:56:28.301Z,45.04
2023-05-08T05:57:28.246Z,44.95
2023-05-08T05:58:28.291Z,44.80
2023-05-08T05:59:28.390Z,45.35
2023-05-08T06:00:28.415Z,44.86
2023-05-08T06:01:28.380Z,45.07
2023-05-08T06:02:28.444Z,45.16
2023-05-08T06:03:28.570Z,45.35
2023-05-08T06:04:28.608Z,45.53
2023-05-08T06:05:28.469Z,45.97
2023-05-08T06:06:28.465Z,45.95
2023-05-08T06:07:28.498Z,46.05
2023-05-08T06:08:28.462Z,45.83
2023-05-08T06:09:28.473Z,46.10
2023-05-08T06:10:28.517Z,46.31
2023-05-08T06:11:28.497Z,46.20
2023-05-08T06:12:28.583Z,46.31
2023-05-08T06:13:28.594Z,46.45
2023-05-08T06:14:28.521Z,46.35
2023-05-08T06:15:28.499Z,46.73
2023-05-08T06:16:28.496Z,46.55
2023-05-08T06:17:28.545Z,46.55
2023-05-08T06:18:28.491Z,46.63
2023-05-08T06:19:28.511Z,46.83
2023-05-08T06:20:28.570Z,46.79
2023-05-08T06:21:28.568Z,46.86
2023-05-08T06:22:28.631Z,47.13
2023-05-08T06:23:28.644Z,47.11
2023-05-08T06:24:28.645Z,47.15
2023-05-08T06:25:28.667Z,47.16
2023-05-08T06:26:28.749Z,47.21
2023-05-08T06:27:28.660Z,47.05
2023-05-08T06:28:28.742Z,46.80
2023-05-08T06:29:28.649Z,46.82
2023-05-08T06:30:28.706Z,46.85
2023-05-08T06:31:28.880Z,46.99
2023-05-08T06:32:28.797Z,47.05
2023-05-08T06:33:28.786Z,47.32
2023-05-08T06:34:28.837Z,47.35
2023-05-08T06:35:28.899Z,47.10
2023-05-08T06:36:28.882Z,45.06
2023-05-08T06:37:28.894Z,44.46
2023-05-08T06:38:28.929Z,44.05
2023-05-08T06:39:28.890Z,44.08
2023-05-08T06:40:28.906Z,43.77
2023-05-08T06:41:29.037Z,43.87
2023-05-08T06:42:28.908Z,44.41
2023-05-08T06:43:28.900Z,44.28
2023-05-08T06:44:28.905Z,44.16
2023-05-08T06:45:28.898Z,43.78
2023-05-08T06:46:28.932Z,43.48
2023-05-08T06:47:29.117Z,43.26
2023-05-08T06:48:28.949Z,43.26
2023-05-08T06:49:28.909Z,43.24
2023-05-08T06:50:28.944Z,43.19
2023-05-08T06:51:28.921Z,43.17
2023-05-08T06:52:29.012Z,43.20
2023-05-08T06:53:28.957Z,43.07
2023-05-08T06:54:28.940Z,42.93
2023-05-08T06:55:28.943Z,42.92
2023-05-08T06:56:29.039Z,43.05
2023-05-08T06:57:29.010Z,42.93
2023-05-08T06:58:28.931Z,42.90
2023-05-08T06:59:28.909Z,43.01
2023-05-08T07:00:28.974Z,42.79
2023-05-08T07:01:28.989Z,43.00
2023-05-08T07:02:29.012Z,42.79
2023-05-08T07:03:28.931Z,43.13
2023-05-08T07:04:30.834Z,43.32
2023-05-08T07:05:28.923Z,43.42
2023-05-08T07:06:28.931Z,43.31
2023-05-08T07:07:28.958Z,43.42
2023-05-08T07:08:28.925Z,43.48
2023-05-08T07:09:28.884Z,43.53
2023-05-08T07:10:28.903Z,43.61
2023-05-08T07:11:28.914Z,43.47
2023-05-08T07:12:29.064Z,43.79
2023-05-08T07:13:28.979Z,43.34
2023-05-08T07:14:28.884Z,43.33
2023-05-08T07:15:29.045Z,43.19
2023-05-08T07:16:28.936Z,42.89
2023-05-08T07:17:28.901Z,42.78
2023-05-08T07:18:28.846Z,42.74
2023-05-08T07:19:28.839Z,42.58
2023-05-08T07:20:28.938Z,42.54
2023-05-08T07:21:28.854Z,42.53
2023-05-08T07:22:28.924Z,42.08
2023-05-08T07:23:28.824Z,42.13
2023-05-08T07:24:28.802Z,42.44
2023-05-08T07:25:28.827Z,42.53
2023-05-08T07:26:28.771Z,42.53
2023-05-08T07:27:28.800Z,42.67
2023-05-08T07:28:28.773Z,42.59
2023-05-08T07:29:28.760Z,42.37
2023-05-08T07:30:28.771Z,42.50
2023-05-08T07:31:28.790Z,42.62
2023-05-08T07:32:28.804Z,42.07
2023-05-08T07:33:28.726Z,42.39
2023-05-08T07:34:28.728Z,42.59
2023-05-08T07:35:29.561Z,42.65
2023-05-08T07:36:28.718Z,42.66
2023-05-08T07:37:28.709Z,42.78
2023-05-08T07:38:29.056Z,42.88
2023-05-08T07:39:28.692Z,42.85
2023-05-08T07:40:28.827Z,42.86
2023-05-08T07:41:28.712Z,42.91
2023-05-08T07:42:28.685Z,43.15
2023-05-08T07:43:29.557Z,43.10
2023-05-08T07:44:28.673Z,43.26
2023-05-08T07:45:29.590Z,43.10
2023-05-08T07:46:28.697Z,42.95
2023-05-08T07:47:28.669Z,42.91
2023-05-08T07:48:28.615Z,42.83
2023-05-08T07:49:28.601Z,42.86
2023-05-08T07:50:29.100Z,42.97
2023-05-08T07:51:28.641Z,43.04
2023-05-08T07:52:28.606Z,42.89
2023-05-08T07:53:28.975Z,43.06
2023-05-08T07:54:28.586Z,43.16
2023-05-08T07:55:28.562Z,43.44
2023-05-08T07:56:28.550Z,43.00
2023-05-08T07:57:28.611Z,42.83
2023-05-08T07:58:28.560Z,42.75
2023-05-08T07:59:28.581Z,42.99
2023-05-08T08:00:28.538Z,42.87
2023-05-08T08:01:28.865Z,43.08
2023-05-08T08:03:28.660Z,43.06
2023-05-08T08:04:28.618Z,43.07
2023-05-08T08:05:28.519Z,43.01
2023-05-08T08:06:28.493Z,42.91
2023-05-08T08:07:28.526Z,43.08
2023-05-08T08:08:28.493Z,42.94
2023-05-08T08:09:28.464Z,42.94
2023-05-08T08:10:28.531Z,43.00
2023-05-08T08:11:28.502Z,43.09
2023-05-08T08:12:28.529Z,43.08
2023-05-08T08:13:28.567Z,43.38
2023-05-08T08:14:28.475Z,42.93
2023-05-08T08:15:28.478Z,42.91
2023-05-08T08:16:28.470Z,43.03
2023-05-08T08:17:28.828Z,43.20
2023-05-08T08:18:28.459Z,42.88
2023-05-08T08:19:28.393Z,42.85
2023-05-08T08:20:28.467Z,42.80
2023-05-08T08:21:28.414Z,42.81
2023-05-08T08:22:28.424Z,42.71
2023-05-08T08:23:28.366Z,42.90
2023-05-08T08:24:28.398Z,43.02
2023-05-08T08:25:28.400Z,43.10
2023-05-08T08:26:28.364Z,42.91
2023-05-08T08:27:28.360Z,42.99
2023-05-08T08:28:28.422Z,42.97
2023-05-08T08:29:28.419Z,43.02
2023-05-08T08:30:28.360Z,43.11
2023-05-08T08:31:28.357Z,43.17
2023-05-08T08:32:28.339Z,43.32
2023-05-08T08:33:28.327Z,43.34
2023-05-08T08:34:28.315Z,43.37
2023-05-08T08:35:28.361Z,43.45
2023-05-08T08:36:28.296Z,43.54
2023-05-08T08:37:28.282Z,43.54
2023-05-08T08:38:28.269Z,43.58
2023-05-08T08:39:28.256Z,43.64
2023-05-08T08:40:28.288Z,43.67
2023-05-08T08:41:28.233Z,43.67
2023-05-08T08:42:28.238Z,45.40
2023-05-08T08:43:29.094Z,45.18
2023-05-08T08:44:28.336Z,45.97
2023-05-08T08:45:28.219Z,45.17
2023-05-08T08:46:28.313Z,46.32
2023-05-08T08:47:28.228Z,47.09
2023-05-08T08:48:28.277Z,45.90
2023-05-08T08:49:28.176Z,46.66
2023-05-08T08:50:28.203Z,46.63
2023-05-08T08:51:28.209Z,46.40
2023-05-08T08:52:28.194Z,46.16
2023-05-08T08:53:28.264Z,45.91
2023-05-08T08:54:28.291Z,46.51
2023-05-08T08:55:28.293Z,46.42
2023-05-08T08:56:28.207Z,46.17
2023-05-08T08:57:28.232Z,46.03
2023-05-08T08:58:28.201Z,45.90
2023-05-08T08:59:29.141Z,46.07
2023-05-08T09:00:28.369Z,46.19
2023-05-08T09:01:28.265Z,46.17
2023-05-08T09:02:28.355Z,45.85
2023-05-08T09:03:28.295Z,46.04
2023-05-08T09:04:28.257Z,46.17
2023-05-08T09:05:28.233Z,45.73
2023-05-08T09:06:28.251Z,45.57
2023-05-08T09:07:28.246Z,45.73
2023-05-08T09:08:28.224Z,45.45
2023-05-08T09:09:28.244Z,45.61
2023-05-08T09:10:28.225Z,45.63
2023-05-08T09:11:28.218Z,45.65
2023-05-08T09:12:28.222Z,46.05
2023-05-08T09:13:28.374Z,45.61
2023-05-08T09:14:28.191Z,45.60
2023-05-08T09:15:28.198Z,45.79
2023-05-08T09:16:28.419Z,45.45
2023-05-08T09:17:28.232Z,45.92
2023-05-08T09:18:28.191Z,45.66
2023-05-08T09:19:29.211Z,45.98
2023-05-08T09:20:28.205Z,45.69
2023-05-08T09:21:28.259Z,45.35
2023-05-08T09:22:28.241Z,45.01
2023-05-08T09:23:28.290Z,44.85
2023-05-08T09:24:30.621Z,44.67
2023-05-08T09:25:28.368Z,44.81
2023-05-08T09:26:28.308Z,44.94
2023-05-08T09:27:28.326Z,44.75
2023-05-08T09:28:28.286Z,45.24
2023-05-08T09:29:29.090Z,45.50
2023-05-08T09:30:28.261Z,44.71
2023-05-08T09:31:28.995Z,44.36
2023-05-08T09:32:28.380Z,44.59
2023-05-08T09:33:28.291Z,44.65
2023-05-08T09:34:28.319Z,44.41
2023-05-08T09:35:28.225Z,44.53
2023-05-08T09:36:28.653Z,44.68
2023-05-08T09:37:28.264Z,44.40
2023-05-08T09:38:28.203Z,44.29
2023-05-08T09:39:28.226Z,44.96
2023-05-08T09:40:28.217Z,44.32
2023-05-08T09:41:28.637Z,44.27
2023-05-08T09:42:28.234Z,44.56
2023-05-08T09:43:28.608Z,44.18
2023-05-08T09:44:28.266Z,44.28
2023-05-08T09:45:28.328Z,44.33
2023-05-08T09:46:28.303Z,44.34
2023-05-08T09:47:28.361Z,44.37
2023-05-08T09:48:28.353Z,44.39
2023-05-08T09:49:28.238Z,44.35
2023-05-08T09:50:28.312Z,44.17
2023-05-08T09:51:28.259Z,44.20
2023-05-08T09:52:28.255Z,44.16
2023-05-08T09:53:29.124Z,44.15
2023-05-08T09:54:28.268Z,44.23
2023-05-08T09:55:28.280Z,44.22
2023-05-08T09:56:28.259Z,44.25
2023-05-08T09:57:28.292Z,44.14
2023-05-08T09:58:28.633Z,44.10
2023-05-08T09:59:28.273Z,44.02
2023-05-08T10:00:28.289Z,44.09
2023-05-08T10:01:28.356Z,44.00
2023-05-08T10:02:28.318Z,43.99
2023-05-08T10:03:28.295Z,43.95
2023-05-08T10:04:28.339Z,43.90
2023-05-08T10:05:28.367Z,43.86
2023-05-08T10:06:28.325Z,43.83
2023-05-08T10:07:28.334Z,44.03
2023-05-08T10:08:28.363Z,43.83
2023-05-08T10:09:35.649Z,43.96
2023-05-08T10:10:29.313Z,43.87
2023-05-08T10:11:28.306Z,43.81
2023-05-08T10:12:28.362Z,43.63
2023-05-08T10:13:28.402Z,43.74
2023-05-08T10:14:28.291Z,43.94
2023-05-08T10:15:28.260Z,43.94
2023-05-08T10:16:28.383Z,43.80
2023-05-08T10:17:28.310Z,43.84
2023-05-08T10:18:28.261Z,43.63
2023-05-08T10:19:28.273Z,43.45
2023-05-08T10:20:28.347Z,43.60
2023-05-08T10:21:28.237Z,43.58
2023-05-08T10:22:28.249Z,43.64
2023-05-08T10:23:28.223Z,43.49
2023-05-08T10:24:28.220Z,43.53
2023-05-08T10:25:28.191Z,43.52
2023-05-08T10:26:28.209Z,43.46
2023-05-08T10:27:28.201Z,43.54
2023-05-08T10:28:28.171Z,43.82
2023-05-08T10:29:28.282Z,43.98
2023-05-08T10:30:28.299Z,44.26
2023-05-08T10:31:28.485Z,44.74
2023-05-08T10:32:28.437Z,44.05
2023-05-08T10:33:30.884Z,43.71
2023-05-08T10:34:28.752Z,43.70
2023-05-08T10:35:28.769Z,43.81
2023-05-08T10:36:30.970Z,43.78
2023-05-08T10:37:28.868Z,43.85
2023-05-08T10:38:28.850Z,43.78
2023-05-08T10:39:28.856Z,43.74
2023-05-08T10:40:28.909Z,43.72
2023-05-08T10:41:28.826Z,43.75
2023-05-08T10:42:28.804Z,43.67
2023-05-08T10:43:28.898Z,43.69
2023-05-08T10:44:28.840Z,43.71
2023-05-08T10:45:28.819Z,43.65
2023-05-08T10:46:28.855Z,43.58
2023-05-08T10:47:28.868Z,43.70
2023-05-08T10:48:28.818Z,43.56
2023-05-08T10:49:28.821Z,43.52
2023-05-08T10:50:28.823Z,43.50
2023-05-08T10:51:28.843Z,43.50
2023-05-08T10:52:28.859Z,43.54
2023-05-08T10:53:28.852Z,43.49
2023-05-08T10:54:29.777Z,43.51
2023-05-08T10:55:28.831Z,43.46
2023-05-08T10:56:28.999Z,43.39
2023-05-08T10:57:28.862Z,43.37
2023-05-08T10:58:28.895Z,43.32
2023-05-08T10:59:28.864Z,43.28
2023-05-08T11:00:28.860Z,43.31
2023-05-08T11:01:28.905Z,43.30
2023-05-08T11:02:28.995Z,43.50
2023-05-08T11:03:32.723Z,43.38
2023-05-08T11:04:29.011Z,43.35
2023-05-08T11:05:28.866Z,43.38
2023-05-08T11:06:28.835Z,43.42
2023-05-08T11:07:28.829Z,43.29
2023-05-08T11:08:29.223Z,43.27
2023-05-08T11:09:28.839Z,43.32
2023-05-08T11:10:28.833Z,43.39
2023-05-08T11:11:28.809Z,43.34
2023-05-08T11:12:28.816Z,43.29
2023-05-08T11:13:28.916Z,43.16
2023-05-08T11:14:28.778Z,43.19
2023-05-08T11:15:28.820Z,43.16
2023-05-08T11:16:28.844Z,43.13
2023-05-08T11:17:28.921Z,43.25
2023-05-08T11:18:41.908Z,43.24
2023-05-08T11:19:29.815Z,43.14
2023-05-08T11:20:30.199Z,43.26
2023-05-08T11:21:28.794Z,43.42
2023-05-08T11:22:28.734Z,43.71
2023-05-08T11:23:29.176Z,43.43
2023-05-08T11:24:28.745Z,43.37
2023-05-08T11:25:28.724Z,43.39
2023-05-08T11:26:28.693Z,43.31
2023-05-08T11:27:28.690Z,43.32
2023-05-08T11:28:28.730Z,43.33
2023-05-08T11:29:28.745Z,43.22
2023-05-08T11:30:28.688Z,43.27
2023-05-08T11:31:28.739Z,43.24
2023-05-08T11:32:28.696Z,43.15
2023-05-08T11:33:28.700Z,43.24
2023-05-08T11:34:28.650Z,43.25
2023-05-08T11:35:28.644Z,43.14
2023-05-08T11:36:28.673Z,43.30
2023-05-08T11:37:28.664Z,43.12
2023-05-08T11:38:28.687Z,43.19
2023-05-08T11:39:28.602Z,43.13
2023-05-08T11:40:28.604Z,43.05
2023-05-08T11:41:28.612Z,43.19
2023-05-08T11:42:28.582Z,43.03
2023-05-08T11:43:28.620Z,43.10
2023-05-08T11:44:28.556Z,43.08
2023-05-08T11:45:28.553Z,43.07
2023-05-08T11:46:28.674Z,43.06
2023-05-08T11:47:28.603Z,43.12
2023-05-08T11:48:28.581Z,43.10
2023-05-08T11:49:29.975Z,43.09
2023-05-08T11:50:28.522Z,43.05
2023-05-08T11:51:28.533Z,43.13
2023-05-08T11:52:28.525Z,43.07
2023-05-08T11:53:28.550Z,43.12
2023-05-08T11:54:28.561Z,43.04
2023-05-08T11:55:28.506Z,43.01
2023-05-08T11:56:28.498Z,42.94
2023-05-08T11:57:28.519Z,42.92
2023-05-08T11:58:28.535Z,42.92
2023-05-08T11:59:28.675Z,42.89
2023-05-08T12:00:28.550Z,42.95
2023-05-08T12:01:28.523Z,42.94
2023-05-08T12:02:28.586Z,42.89
2023-05-08T12:03:28.720Z,42.89
2023-05-08T12:04:28.716Z,42.95
2023-05-08T12:05:28.519Z,42.88
2023-05-08T12:06:28.515Z,42.84
2023-05-08T12:07:28.501Z,42.86
2023-05-08T12:08:28.520Z,42.84
2023-05-08T12:09:28.522Z,42.84
2023-05-08T12:10:28.535Z,42.80
2023-05-08T12:11:28.520Z,42.77
2023-05-08T12:12:28.526Z,42.72
2023-05-08T12:13:28.731Z,42.72
2023-05-08T12:14:28.532Z,42.71
2023-05-08T12:15:28.499Z,42.71
2023-05-08T12:16:28.652Z,42.70
2023-05-08T12:17:28.546Z,42.68
2023-05-08T12:18:28.486Z,42.65
2023-05-08T12:19:28.504Z,42.63
2023-05-08T12:20:28.491Z,42.64
2023-05-08T12:21:28.508Z,42.52
2023-05-08T12:22:28.513Z,42.62
2023-05-08T12:23:28.497Z,42.48
2023-05-08T12:24:28.518Z,42.54
2023-05-08T12:25:28.510Z,42.91
2023-05-08T12:26:28.515Z,43.63
2023-05-08T12:27:28.539Z,43.36
2023-05-08T12:28:28.520Z,43.23
2023-05-08T12:29:28.555Z,43.13
2023-05-08T12:30:28.528Z,43.65
2023-05-08T12:31:28.560Z,43.49
2023-05-08T12:32:29.197Z,43.83
2023-05-08T12:33:28.510Z,44.12
2023-05-08T12:34:28.537Z,43.54
2023-05-08T12:35:28.526Z,44.02
2023-05-08T12:36:28.529Z,43.96
2023-05-08T12:37:28.546Z,43.84
2023-05-08T12:38:28.537Z,43.58
2023-05-08T12:39:28.527Z,43.17
2023-05-08T12:40:28.597Z,43.08
2023-05-08T12:41:28.584Z,43.31
2023-05-08T12:42:28.546Z,43.47
2023-05-08T12:43:28.533Z,43.58
2023-05-08T12:44:28.586Z,43.53
2023-05-08T12:45:28.546Z,43.30
2023-05-08T12:46:28.640Z,42.69
2023-05-08T12:47:28.617Z,43.16
2023-05-08T12:48:28.716Z,43.24
2023-05-08T12:49:28.585Z,43.14
2023-05-08T12:50:28.589Z,43.15
2023-05-08T12:51:28.586Z,43.18
2023-05-08T12:52:28.572Z,43.15
2023-05-08T12:53:28.589Z,43.10
2023-05-08T12:54:28.606Z,42.43